Palo Cedro, CA (96073)

6:59 AM PDT on March 30, 2015 (GMT -0700)
Deschutes & Lassen View Dr. | | Change Station
CLOSE
Current Station
Personal Weather Station
Location: Palo Cedro, CA
Elevation: 538 ft
Nearby Weather Stations

Elev 538 ft 40.57 °N, 122.24 °W | Updated 13 minutes ago

Partly Cloudy
Partly Cloudy
47.3 °F
Feels Like 47 °F
N
2.2
Wind Variable Wind from West

Today
High -- | Low -- °F
--% Chance of Precip.
Yesterday
High -- | Low -- °F
Precip. -- in
6:56 AM 7:31 PM
Waxing Gibbous, 80% visible
Pressure 30.00 in
Visibility 10.0 miles
Clouds Clear
Windchill 47 °F
Dew Point 45 °F
Humidity 91%
Rainfall 0.00 in
Snow Depth Not available.
UV 0 out of 12
Pollen 10.00 out of 12
Air Quality Not available.
Flu Activity Not available.
METAR KRDD 301353Z 00000KT 10SM CLR 12/07 A3001 RMK AO2 SLP157 T01170072

More Conditions Fewer Conditions

Pressure 30.00 in
Visibility 10.0 miles
Clouds Clear
Windchill 47 °F
Dew Point 45 °F
Humidity 91%
Rainfall 0.00 in
Snow Depth Not available.
UV 0 out of 12
Pollen 10.00 out of 12
Air Quality Not available.
Flu Activity Not available.
METAR KRDD 301353Z 00000KT 10SM CLR 12/07 A3001 RMK AO2 SLP157 T01170072

More Conditions Fewer Conditions

10-Day Weather Forecast

Almanac

Astronomy

Mar. 30, 2015 Rise Set
Actual Time
Civil Twilight
Nautical Twilight
Astronomical Twilight
Moon
Length of Visible Light
Length of Day
Tomorrow will be .
, % of the Moon is Illuminated

Today's Extremes

State Highs State Lows

Community

WunderPhotos

Upload Photos

1,809,493 photos uploaded!

WunderBlogs® & News

Nearby

Air Quality

  Air Quality AQ Index Pollutant
Not available.

Snow Depth

Station Depth Elevation

Earthquake Activity

City Distance Mag. Time & Date
Minimum magnitude displayed is 2.5.

Coastal Water Temperatures

Place Temperature

Stations

Nearby Weather Stations

Station Location Temp. Windchill Dew Point Humidity Wind Precip. Elev Updated Type